createdAt,value
2022-09-16T00:02:23.701Z,0.80
2022-09-16T00:05:26.316Z,0.70
2022-09-16T00:08:30.227Z,0.90
2022-09-16T00:11:34.289Z,0.68
2022-09-16T00:14:36.834Z,0.75
2022-09-16T00:17:39.643Z,0.70
2022-09-16T00:20:46.061Z,0.68
2022-09-16T00:23:50.016Z,0.80
2022-09-16T00:26:52.558Z,1.05
2022-09-16T00:29:55.048Z,0.95
2022-09-16T00:32:57.629Z,0.90
2022-09-16T00:36:07.282Z,0.90
2022-09-16T00:39:11.383Z,0.80
2022-09-16T00:42:14.174Z,0.57
2022-09-16T00:45:18.054Z,0.90
2022-09-16T00:48:22.434Z,0.70
2022-09-16T00:51:25.280Z,0.70
2022-09-16T00:54:29.687Z,1.33
2022-09-16T00:57:32.319Z,1.02
2022-09-16T01:00:35.044Z,1.08
2022-09-16T01:03:40.974Z,0.68
2022-09-16T01:06:43.567Z,0.73
2022-09-16T01:09:47.496Z,0.60
2022-09-16T01:12:51.474Z,0.75
2022-09-16T01:15:58.176Z,1.00
2022-09-16T01:19:05.974Z,0.90
2022-09-16T01:22:13.784Z,0.73
2022-09-16T01:25:26.945Z,0.60
2022-09-16T01:28:49.876Z,0.75
2022-09-16T01:31:57.809Z,0.70
2022-09-16T01:35:04.943Z,0.82
2022-09-16T01:38:11.677Z,0.85
2022-09-16T01:41:18.539Z,0.73
2022-09-16T01:44:26.757Z,0.88
2022-09-16T01:47:33.404Z,0.93
2022-09-16T01:50:38.859Z,0.75
2022-09-16T01:53:44.238Z,0.73
2022-09-16T01:56:49.344Z,0.63
2022-09-16T01:59:55.515Z,0.75
2022-09-16T02:03:01.155Z,1.00
2022-09-16T02:06:05.080Z,0.60
2022-09-16T02:09:11.268Z,0.88
2022-09-16T02:12:14.968Z,1.23
2022-09-16T02:15:22.253Z,0.70
2022-09-16T02:18:28.723Z,0.63
2022-09-16T02:21:32.939Z,0.90
2022-09-16T02:24:37.594Z,0.50
2022-09-16T02:27:41.674Z,0.70
2022-09-16T02:30:45.846Z,0.40
2022-09-16T02:33:52.702Z,0.68
2022-09-16T02:36:57.247Z,0.70
2022-09-16T02:40:02.212Z,0.50
2022-09-16T02:43:04.999Z,0.45
2022-09-16T02:46:10.876Z,0.60
2022-09-16T02:49:16.613Z,0.50
2022-09-16T02:52:23.726Z,0.70
2022-09-16T02:55:31.426Z,0.70
2022-09-16T02:58:34.105Z,0.55
2022-09-16T03:01:39.031Z,0.38
2022-09-16T03:04:42.924Z,0.70
2022-09-16T03:07:45.569Z,0.80
2022-09-16T03:10:48.295Z,0.70
2022-09-16T03:13:55.074Z,0.75
2022-09-16T03:17:02.158Z,1.08
2022-09-16T03:20:10.881Z,0.50
2022-09-16T03:23:20.750Z,0.80
2022-09-16T03:26:26.393Z,0.50
2022-09-16T03:29:31.251Z,0.82
2022-09-16T03:32:35.842Z,0.70
2022-09-16T03:35:43.761Z,0.60
2022-09-16T03:38:46.752Z,0.80
2022-09-16T03:41:49.798Z,0.60
2022-09-16T03:44:52.379Z,0.73
2022-09-16T03:47:55.031Z,0.57
2022-09-16T03:50:58.835Z,0.50
2022-09-16T03:54:01.423Z,0.90
2022-09-16T03:57:04.513Z,0.60
2022-09-16T04:00:08.568Z,0.60
2022-09-16T04:03:17.640Z,0.95
2022-09-16T04:06:22.842Z,0.55
2022-09-16T04:09:25.651Z,0.70
2022-09-16T04:12:30.904Z,0.80
2022-09-16T04:15:38.453Z,1.15
2022-09-16T04:18:42.859Z,1.75
2022-09-16T04:21:47.091Z,0.70
2022-09-16T04:24:50.444Z,1.10
2022-09-16T04:27:53.403Z,0.70
2022-09-16T04:30:56.079Z,0.70
2022-09-16T04:33:58.727Z,1.10
2022-09-16T04:37:02.639Z,1.00
2022-09-16T04:40:05.655Z,0.63
2022-09-16T04:43:09.453Z,1.05
2022-09-16T04:46:13.029Z,0.80
2022-09-16T04:49:15.671Z,1.10
2022-09-16T04:52:19.601Z,0.75
2022-09-16T04:55:23.262Z,0.90
2022-09-16T04:58:25.971Z,1.63
2022-09-16T05:01:29.579Z,1.00
2022-09-16T05:04:33.021Z,0.95
2022-09-16T05:07:37.887Z,0.77
2022-09-16T05:10:41.299Z,0.90
2022-09-16T05:13:44.395Z,0.60
2022-09-16T05:16:47.206Z,0.70
2022-09-16T05:19:49.858Z,0.90
2022-09-16T05:22:53.844Z,0.77
2022-09-16T05:25:56.364Z,0.98
2022-09-16T05:29:01.317Z,0.50
2022-09-16T05:32:03.949Z,1.27
2022-09-16T05:35:07.783Z,0.88
2022-09-16T05:38:11.751Z,0.77
2022-09-16T05:41:14.282Z,0.90
2022-09-16T05:44:16.930Z,0.73
2022-09-16T05:47:19.714Z,0.75
2022-09-16T05:50:22.333Z,0.95
2022-09-16T05:53:26.642Z,0.70
2022-09-16T05:56:30.044Z,0.57
2022-09-16T05:59:32.570Z,0.80
2022-09-16T06:02:35.189Z,0.70
2022-09-16T06:05:39.130Z,0.88
2022-09-16T06:08:45.344Z,0.50
2022-09-16T06:11:48.777Z,0.60
2022-09-16T06:14:51.369Z,0.88
2022-09-16T06:17:54.013Z,0.70
2022-09-16T06:20:56.765Z,0.90
2022-09-16T06:24:00.936Z,0.50
2022-09-16T06:27:04.181Z,0.88
2022-09-16T06:30:07.200Z,0.77
2022-09-16T06:33:11.361Z,0.57
2022-09-16T06:36:16.229Z,0.70
2022-09-16T06:39:20.340Z,0.70
2022-09-16T06:42:23.086Z,0.77
2022-09-16T06:45:26.346Z,0.80
2022-09-16T06:48:29.516Z,0.50
2022-09-16T06:51:32.578Z,0.88
2022-09-16T06:54:57.564Z,0.80
2022-09-16T06:58:18.847Z,0.65
2022-09-16T07:01:30.970Z,1.08
2022-09-16T07:04:35.463Z,0.70
2022-09-16T07:07:39.419Z,0.70
2022-09-16T07:10:43.605Z,0.90
2022-09-16T07:13:47.079Z,0.77
2022-09-16T07:16:49.991Z,0.68
2022-09-16T07:19:52.954Z,0.73
2022-09-16T07:22:55.590Z,0.63
2022-09-16T07:26:03.294Z,0.95
2022-09-16T07:29:07.761Z,0.77
2022-09-16T07:32:10.422Z,0.80
2022-09-16T07:35:13.240Z,0.68
2022-09-16T07:38:15.779Z,0.73
2022-09-16T07:41:20.973Z,0.70
2022-09-16T07:44:24.456Z,0.50
2022-09-16T07:47:27.351Z,0.70
2022-09-16T07:50:29.958Z,0.70
2022-09-16T07:53:33.091Z,0.82
2022-09-16T07:56:38.136Z,0.80
2022-09-16T07:59:40.792Z,0.60
2022-09-16T08:02:43.799Z,0.70
2022-09-16T08:05:46.795Z,0.70
2022-09-16T08:08:49.750Z,0.80
2022-09-16T08:11:54.017Z,0.93
2022-09-16T08:14:56.761Z,0.80
2022-09-16T08:17:59.692Z,0.82
2022-09-16T08:21:06.638Z,0.98
2022-09-16T08:24:10.429Z,0.90
2022-09-16T08:27:16.397Z,1.15
2022-09-16T08:30:19.904Z,0.80
2022-09-16T08:33:32.145Z,0.90
2022-09-16T08:36:34.883Z,1.02
2022-09-16T08:39:37.456Z,0.70
2022-09-16T08:42:50.999Z,0.90
2022-09-16T08:45:55.578Z,0.85
2022-09-16T08:49:01.459Z,0.80
2022-09-16T08:52:06.116Z,0.77
2022-09-16T08:55:12.920Z,1.05
2022-09-16T08:58:18.712Z,0.82
2022-09-16T09:01:25.990Z,0.77
2022-09-16T09:04:29.643Z,0.88
2022-09-16T09:07:42.967Z,0.60
2022-09-16T09:10:49.668Z,0.70
2022-09-16T09:14:01.509Z,1.17
2022-09-16T09:17:07.770Z,1.10
2022-09-16T09:20:16.897Z,0.70
2022-09-16T09:23:28.695Z,0.88
2022-09-16T09:26:35.617Z,0.68
2022-09-16T09:29:46.462Z,0.68
2022-09-16T09:32:54.578Z,0.63
2022-09-16T09:36:03.814Z,0.70
2022-09-16T09:39:21.687Z,0.90
2022-09-16T09:42:26.282Z,0.85
2022-09-16T09:45:31.595Z,1.00
2022-09-16T09:48:36.441Z,0.95
2022-09-16T09:51:40.301Z,1.00
2022-09-16T09:54:47.149Z,0.75
2022-09-16T09:57:57.127Z,1.30
2022-09-16T10:01:01.452Z,1.00
2022-09-16T10:04:25.357Z,0.98
2022-09-16T10:07:30.733Z,0.95
2022-09-16T10:15:55.565Z,0.70
2022-09-16T10:19:02.567Z,0.50
2022-09-16T10:22:12.519Z,0.60
2022-09-16T10:25:23.636Z,0.73
2022-09-16T10:28:27.040Z,0.98
2022-09-16T10:31:34.400Z,0.70
2022-09-16T10:34:57.217Z,1.00
2022-09-16T10:38:00.952Z,1.00
2022-09-16T10:41:07.400Z,0.88
2022-09-16T10:48:13.658Z,1.00
2022-09-16T10:51:25.359Z,0.70
2022-09-16T10:54:28.913Z,1.00
2022-09-16T10:57:33.111Z,0.90
2022-09-16T11:00:42.257Z,0.80
2022-09-16T11:03:58.222Z,0.80
2022-09-16T11:07:08.841Z,0.82
2022-09-16T11:10:17.063Z,0.90
2022-09-16T11:13:27.710Z,1.05
2022-09-16T11:17:16.815Z,1.00
2022-09-16T11:20:28.023Z,0.93
2022-09-16T11:23:38.773Z,0.75
2022-09-16T11:26:45.488Z,0.55
2022-09-16T11:29:58.342Z,1.13
2022-09-16T11:33:20.353Z,0.55
2022-09-16T11:36:34.243Z,0.75
2022-09-16T11:40:04.866Z,0.60
2022-09-16T11:43:35.990Z,0.70
2022-09-16T11:50:15.933Z,0.65
2022-09-16T11:53:30.918Z,0.88
2022-09-16T11:57:22.890Z,0.50
2022-09-16T12:01:14.849Z,0.80
2022-09-16T12:04:21.703Z,0.60
2022-09-16T12:07:27.319Z,1.17
2022-09-16T12:10:38.984Z,0.95
2022-09-16T12:14:05.957Z,0.80
2022-09-16T12:17:19.536Z,0.85
2022-09-16T12:20:36.521Z,0.80
2022-09-16T12:23:42.866Z,0.68
2022-09-16T12:26:58.432Z,0.80
2022-09-16T12:30:03.581Z,0.60
2022-09-16T12:33:07.835Z,0.63
2022-09-16T12:36:26.290Z,0.88
2022-09-16T12:39:31.162Z,0.85
2022-09-16T12:42:48.411Z,0.93
2022-09-16T12:46:08.593Z,1.08
2022-09-16T12:49:29.401Z,0.93
2022-09-16T12:52:52.271Z,1.02
2022-09-16T12:56:31.906Z,0.95
2022-09-16T12:59:55.354Z,0.80
2022-09-16T13:03:00.082Z,0.70
2022-09-16T13:06:04.585Z,0.68
2022-09-16T13:09:21.904Z,1.15
2022-09-16T13:12:54.516Z,0.50
2022-09-16T13:15:57.837Z,0.75
2022-09-16T13:19:11.898Z,0.85
2022-09-16T13:22:18.576Z,0.75
2022-09-16T13:25:24.860Z,0.70
2022-09-16T13:28:36.380Z,0.68
2022-09-16T13:31:47.596Z,0.63
2022-09-16T13:35:00.779Z,0.73
2022-09-16T13:38:12.647Z,1.10
2022-09-16T13:41:29.847Z,0.90
2022-09-16T13:44:41.991Z,1.20
2022-09-16T13:47:49.921Z,0.60
2022-09-16T13:51:02.255Z,1.15
2022-09-16T13:54:25.019Z,0.77
2022-09-16T13:57:32.038Z,0.98
2022-09-16T14:00:49.121Z,0.98
2022-09-16T14:04:10.920Z,0.90
2022-09-16T14:07:27.002Z,0.65
2022-09-16T14:10:50.005Z,0.82
2022-09-16T14:14:48.602Z,0.57
2022-09-16T14:17:57.578Z,0.60
2022-09-16T14:21:04.407Z,0.80
2022-09-16T14:27:43.977Z,0.60
2022-09-16T14:30:49.593Z,0.70
2022-09-16T14:34:01.645Z,0.50
2022-09-16T14:37:08.880Z,0.73
2022-09-16T14:40:33.307Z,0.50
2022-09-16T14:44:11.874Z,0.47
2022-09-16T14:47:50.057Z,0.63
2022-09-16T14:51:32.765Z,0.70
2022-09-16T14:55:27.421Z,0.50
2022-09-16T15:03:26.084Z,0.70
2022-09-16T15:06:30.066Z,0.93
2022-09-16T15:09:49.499Z,0.63
2022-09-16T15:13:22.183Z,0.50
2022-09-16T15:16:30.084Z,0.50
2022-09-16T15:19:47.706Z,0.55
2022-09-16T15:22:50.352Z,0.43
2022-09-16T15:25:53.905Z,0.60
2022-09-16T15:28:59.107Z,0.70
2022-09-16T15:32:16.013Z,0.55
2022-09-16T15:35:25.332Z,0.80
2022-09-16T15:38:27.862Z,0.88
2022-09-16T15:41:31.140Z,0.68
2022-09-16T15:44:37.591Z,0.50
2022-09-16T15:47:48.451Z,1.23
2022-09-16T15:50:52.604Z,0.80
2022-09-16T15:53:56.976Z,1.05
2022-09-16T15:57:02.505Z,0.82
2022-09-16T16:00:12.297Z,0.98
2022-09-16T16:03:20.887Z,0.65
2022-09-16T16:06:38.184Z,0.47
2022-09-16T16:09:45.320Z,0.77
2022-09-16T16:12:49.130Z,0.77
2022-09-16T16:15:53.761Z,0.95
2022-09-16T16:18:57.223Z,0.63
2022-09-16T16:22:00.404Z,0.50
2022-09-16T16:25:02.975Z,0.85
2022-09-16T16:28:05.605Z,0.60
2022-09-16T16:31:10.747Z,0.60
2022-09-16T16:34:13.483Z,0.60
2022-09-16T16:37:40.313Z,0.60
2022-09-16T16:40:41.447Z,0.80
2022-09-16T16:43:44.064Z,0.50
2022-09-16T16:46:48.124Z,1.27
2022-09-16T16:49:51.965Z,0.88
2022-09-16T16:52:55.446Z,0.95
2022-09-16T16:56:03.351Z,0.50
2022-09-16T16:59:20.787Z,0.70
2022-09-16T17:02:25.904Z,0.65
2022-09-16T17:05:29.230Z,0.63
2022-09-16T17:08:33.645Z,0.90
2022-09-16T17:11:58.672Z,0.50
2022-09-16T17:15:01.482Z,0.60
2022-09-16T17:18:08.893Z,0.90
2022-09-16T17:21:12.019Z,0.70
2022-09-16T17:24:15.010Z,0.75
2022-09-16T17:27:19.627Z,0.73
2022-09-16T17:30:22.468Z,1.42
2022-09-16T17:33:26.333Z,1.00
2022-09-16T17:36:28.879Z,1.05
2022-09-16T17:39:31.384Z,1.20
2022-09-16T17:42:39.731Z,1.58
2022-09-16T17:46:00.563Z,1.38
2022-09-16T17:49:06.185Z,1.70
2022-09-16T17:52:08.731Z,1.65
2022-09-16T17:55:11.521Z,1.70
2022-09-16T17:58:14.840Z,1.80
2022-09-16T18:01:49.971Z,1.70
2022-09-16T18:04:53.992Z,2.10
2022-09-16T18:07:56.553Z,2.30
2022-09-16T18:11:02.159Z,2.08
2022-09-16T18:14:22.625Z,1.95
2022-09-16T18:17:26.100Z,2.10
2022-09-16T18:20:30.951Z,2.00
2022-09-16T18:23:33.956Z,1.50
2022-09-16T18:31:04.706Z,2.05
2022-09-16T18:34:34.943Z,1.75
2022-09-16T18:43:05.986Z,2.20
2022-09-16T18:46:26.950Z,1.77
2022-09-16T18:49:30.156Z,1.92
2022-09-16T18:52:37.005Z,1.80
2022-09-16T18:56:17.611Z,1.63
2022-09-16T18:59:24.634Z,1.70
2022-09-16T19:06:19.493Z,1.90
2022-09-16T19:09:25.720Z,2.05
2022-09-16T19:12:39.123Z,1.63
2022-09-16T19:15:46.120Z,1.40
2022-09-16T19:18:53.176Z,1.63
2022-09-16T19:21:55.901Z,1.70
2022-09-16T19:25:03.195Z,1.42
2022-09-16T19:28:09.868Z,2.05
2022-09-16T19:31:18.596Z,1.35
2022-09-16T19:34:22.917Z,1.23
2022-09-16T19:37:26.494Z,1.10
2022-09-16T19:40:29.483Z,1.40
2022-09-16T19:43:32.402Z,1.10
2022-09-16T19:46:35.897Z,1.10
2022-09-16T19:49:40.138Z,1.60
2022-09-16T19:52:43.295Z,1.65
2022-09-16T19:55:46.381Z,1.38
2022-09-16T19:58:49.172Z,1.60
2022-09-16T20:01:51.900Z,1.02
2022-09-16T20:04:55.902Z,1.45
2022-09-16T20:07:58.345Z,1.05
2022-09-16T20:11:04.614Z,1.75
2022-09-16T20:14:07.884Z,1.30
2022-09-16T20:17:12.463Z,1.33
2022-09-16T20:20:16.664Z,1.70
2022-09-16T20:23:19.139Z,1.42
2022-09-16T20:26:22.330Z,2.08
2022-09-16T20:29:33.776Z,1.50
2022-09-16T20:32:59.236Z,1.15
2022-09-16T20:36:25.516Z,1.33
2022-09-16T20:39:52.135Z,2.67
2022-09-16T20:42:56.018Z,1.58
2022-09-16T20:46:03.952Z,1.80
2022-09-16T20:49:10.637Z,1.42
2022-09-16T20:52:13.684Z,1.88
2022-09-16T20:55:21.273Z,1.10
2022-09-16T20:58:30.160Z,1.13
2022-09-16T21:01:33.333Z,1.70
2022-09-16T21:04:36.206Z,1.63
2022-09-16T21:07:41.389Z,1.35
2022-09-16T21:10:43.831Z,0.98
2022-09-16T21:13:48.710Z,1.27
2022-09-16T21:16:52.726Z,1.52
2022-09-16T21:19:55.661Z,1.77
2022-09-16T21:22:58.165Z,1.17
2022-09-16T21:26:04.808Z,1.35
2022-09-16T21:29:10.902Z,1.23
2022-09-16T21:32:15.079Z,1.27
2022-09-16T21:35:17.918Z,1.20
2022-09-16T21:38:21.994Z,1.13
2022-09-16T21:41:30.569Z,1.30
2022-09-16T21:44:34.485Z,1.35
2022-09-16T21:47:37.095Z,0.90
2022-09-16T21:50:42.953Z,0.90
2022-09-16T21:53:46.577Z,1.50
2022-09-16T21:56:49.685Z,1.05
2022-09-16T21:59:53.546Z,1.20
2022-09-16T22:02:57.477Z,1.08
2022-09-16T22:06:00.502Z,1.10
2022-09-16T22:09:04.606Z,1.00
2022-09-16T22:12:07.662Z,1.20
2022-09-16T22:15:13.756Z,0.95
2022-09-16T22:18:17.567Z,1.15
2022-09-16T22:21:20.008Z,1.40
2022-09-16T22:24:22.947Z,1.20
2022-09-16T22:27:25.441Z,1.17
2022-09-16T22:30:30.089Z,1.23
2022-09-16T22:33:32.486Z,1.30
2022-09-16T22:36:36.125Z,1.00
2022-09-16T22:39:41.238Z,1.35
2022-09-16T22:42:43.829Z,1.33
2022-09-16T22:45:53.512Z,1.23
2022-09-16T22:48:57.584Z,1.48
2022-09-16T22:52:00.019Z,1.40
2022-09-16T22:55:14.772Z,1.27
2022-09-16T22:58:17.293Z,1.48
2022-09-16T23:01:21.946Z,1.48
2022-09-16T23:04:27.125Z,1.30
2022-09-16T23:07:29.731Z,1.15
2022-09-16T23:10:32.131Z,1.70
2022-09-16T23:13:35.458Z,1.75
2022-09-16T23:16:39.282Z,1.73
2022-09-16T23:19:41.790Z,1.00
2022-09-16T23:22:44.162Z,1.58
2022-09-16T23:25:46.542Z,1.45
2022-09-16T23:28:52.101Z,1.15
2022-09-16T23:32:02.416Z,1.27
2022-09-16T23:35:05.017Z,1.27
2022-09-16T23:38:07.670Z,1.35
2022-09-16T23:41:10.946Z,1.40
2022-09-16T23:44:14.240Z,1.58
2022-09-16T23:47:18.059Z,1.50
2022-09-16T23:50:21.935Z,1.63
2022-09-16T23:53:24.533Z,1.40
2022-09-16T23:56:27.330Z,1.98
2022-09-16T23:59:29.785Z,2.20
